createdAt,value
2017-09-22T00:00:45.673Z,16.10
2017-09-22T00:03:16.376Z,16.00
2017-09-22T00:05:45.872Z,16.00
2017-09-22T00:08:13.364Z,16.00
2017-09-22T00:10:46.903Z,16.00
2017-09-22T00:13:19.430Z,16.00
2017-09-22T00:15:49.763Z,16.00
2017-09-22T00:18:20.530Z,15.90
2017-09-22T00:20:50.626Z,15.90
2017-09-22T00:23:21.206Z,15.90
2017-09-22T00:25:52.446Z,15.90
2017-09-22T00:28:21.591Z,15.90
2017-09-22T00:30:52.313Z,15.80
2017-09-22T00:33:22.984Z,15.70
2017-09-22T00:35:53.130Z,15.70
2017-09-22T00:38:20.616Z,15.70
2017-09-22T00:40:48.090Z,15.80
2017-09-22T00:43:15.575Z,15.80
2017-09-22T00:45:43.823Z,15.80
2017-09-22T00:48:11.293Z,15.70
2017-09-22T00:50:39.546Z,15.70
2017-09-22T00:53:07.033Z,15.70
2017-09-22T00:55:35.274Z,15.70
2017-09-22T00:58:02.755Z,15.60
2017-09-22T01:00:30.235Z,15.70
2017-09-22T01:02:58.488Z,15.70
2017-09-22T01:05:29.892Z,15.60
2017-09-22T01:07:57.379Z,15.70
2017-09-22T01:10:24.865Z,15.70
2017-09-22T01:12:52.347Z,15.70
2017-09-22T01:15:19.834Z,15.70
2017-09-22T01:17:47.306Z,15.70
2017-09-22T01:20:14.800Z,15.70
2017-09-22T01:22:58.094Z,15.70
2017-09-22T01:25:25.571Z,15.70
2017-09-22T01:27:53.052Z,15.70
2017-09-22T01:30:21.297Z,15.70
2017-09-22T01:32:48.774Z,15.60
2017-09-22T01:35:31.136Z,15.60
2017-09-22T01:37:58.652Z,15.60
2017-09-22T01:40:26.896Z,15.60
2017-09-22T01:42:54.373Z,15.60
2017-09-22T01:45:21.854Z,15.60
2017-09-22T01:47:50.099Z,15.50
2017-09-22T01:50:17.579Z,15.50
2017-09-22T01:52:45.060Z,15.60
2017-09-22T01:55:13.347Z,15.50
2017-09-22T01:57:41.585Z,15.50
2017-09-22T02:00:09.846Z,15.50
2017-09-22T02:05:12.528Z,15.60
2017-09-22T02:07:55.667Z,15.50
2017-09-22T02:10:23.148Z,15.50
2017-09-22T02:13:02.170Z,15.50
2017-09-22T02:15:29.641Z,15.40
2017-09-22T02:17:57.144Z,15.40
2017-09-22T02:20:24.617Z,15.50
2017-09-22T02:22:52.094Z,15.40
2017-09-22T02:25:19.570Z,15.50
2017-09-22T02:27:47.042Z,15.40
2017-09-22T02:30:15.557Z,15.30
2017-09-22T02:32:43.037Z,15.30
2017-09-22T02:35:10.513Z,15.40
2017-09-22T02:37:37.990Z,15.30
2017-09-22T02:40:05.458Z,15.30
2017-09-22T02:42:33.703Z,15.30
2017-09-22T02:45:01.186Z,15.20
2017-09-22T02:47:28.663Z,15.30
2017-09-22T02:49:56.920Z,15.30
2017-09-22T02:52:24.399Z,15.20
2017-09-22T02:54:52.641Z,15.30
2017-09-22T02:57:20.113Z,15.20
2017-09-22T02:59:47.594Z,15.30
2017-09-22T03:02:15.844Z,15.20
2017-09-22T03:04:43.325Z,15.20
2017-09-22T03:07:11.570Z,15.30
2017-09-22T03:09:39.041Z,15.20
2017-09-22T03:12:06.537Z,15.20
2017-09-22T03:14:34.030Z,15.20
2017-09-22T03:17:01.534Z,15.20
2017-09-22T03:19:37.941Z,15.10
2017-09-22T03:22:05.413Z,15.10
2017-09-22T03:24:32.890Z,15.10
2017-09-22T03:27:00.370Z,15.10
2017-09-22T03:29:28.628Z,15.10
2017-09-22T03:32:02.842Z,15.00
2017-09-22T03:34:33.073Z,15.10
2017-09-22T03:37:00.558Z,15.10
2017-09-22T03:39:28.815Z,14.90
2017-09-22T03:41:56.290Z,14.80
2017-09-22T03:44:24.524Z,14.90
2017-09-22T03:46:51.998Z,14.90
2017-09-22T03:49:19.480Z,14.80
2017-09-22T03:51:47.726Z,14.70
2017-09-22T03:54:15.212Z,14.60
2017-09-22T03:56:43.473Z,14.60
2017-09-22T04:02:08.600Z,14.60
2017-09-22T04:04:36.082Z,14.50
2017-09-22T04:07:04.331Z,14.40
2017-09-22T04:09:31.810Z,14.30
2017-09-22T04:12:00.056Z,14.30
2017-09-22T04:14:27.529Z,14.30
2017-09-22T04:16:55.015Z,14.40
2017-09-22T04:19:23.258Z,14.50
2017-09-22T04:21:50.729Z,14.40
2017-09-22T04:24:18.207Z,14.40
2017-09-22T04:26:46.463Z,14.30
2017-09-22T04:29:13.937Z,14.30
2017-09-22T04:31:42.194Z,14.40
2017-09-22T04:34:09.692Z,14.40
2017-09-22T04:36:37.170Z,14.60
2017-09-22T04:39:17.350Z,14.60
2017-09-22T04:41:44.825Z,14.60
2017-09-22T04:44:12.303Z,14.50
2017-09-22T04:46:40.549Z,14.40
2017-09-22T04:49:08.036Z,14.30
2017-09-22T04:51:51.026Z,14.40
2017-09-22T04:54:18.507Z,14.40
2017-09-22T04:59:38.721Z,14.50
2017-09-22T05:02:06.207Z,14.40
2017-09-22T05:04:33.693Z,14.50
2017-09-22T05:07:01.175Z,14.50
2017-09-22T05:09:28.655Z,14.40
2017-09-22T05:11:56.130Z,14.40
2017-09-22T05:14:24.365Z,14.30
2017-09-22T05:16:51.839Z,14.30
2017-09-22T05:19:19.315Z,14.30
2017-09-22T05:21:47.571Z,14.30
2017-09-22T05:24:15.063Z,14.20
2017-09-22T05:26:43.302Z,14.30
2017-09-22T05:29:28.643Z,14.30
2017-09-22T05:31:56.108Z,14.30
2017-09-22T05:34:23.592Z,14.30
2017-09-22T05:36:51.068Z,14.30
2017-09-22T05:39:26.620Z,14.30
2017-09-22T05:41:54.108Z,14.20
2017-09-22T05:44:21.590Z,14.30
2017-09-22T05:46:49.070Z,14.30
2017-09-22T05:49:16.554Z,14.30
2017-09-22T05:51:44.038Z,14.40
2017-09-22T05:54:12.287Z,14.40
2017-09-22T05:56:39.766Z,14.30
2017-09-22T05:59:08.016Z,14.40
2017-09-22T06:01:35.496Z,14.40
2017-09-22T06:04:03.751Z,14.60
2017-09-22T06:06:31.240Z,14.60
2017-09-22T06:08:59.483Z,14.70
2017-09-22T06:11:42.749Z,14.60
2017-09-22T06:14:10.995Z,14.60
2017-09-22T06:16:38.478Z,14.50
2017-09-22T06:19:06.730Z,14.80
2017-09-22T06:21:34.203Z,14.70
2017-09-22T06:24:01.697Z,14.80
2017-09-22T06:26:29.178Z,15.20
2017-09-22T06:28:56.672Z,15.00
2017-09-22T06:35:30.740Z,14.80
2017-09-22T06:37:58.986Z,14.90
2017-09-22T06:40:26.462Z,14.80
2017-09-22T06:47:22.842Z,14.90
2017-09-22T06:49:51.099Z,15.00
2017-09-22T06:52:18.579Z,14.90
2017-09-22T06:54:46.822Z,15.00
2017-09-22T06:57:14.300Z,15.00
2017-09-22T06:59:42.556Z,15.10
2017-09-22T07:02:10.043Z,15.00
2017-09-22T07:04:38.291Z,15.20
2017-09-22T07:07:05.769Z,15.10
2017-09-22T07:09:34.017Z,15.20
2017-09-22T07:12:01.482Z,15.20
2017-09-22T07:14:28.989Z,15.30
2017-09-22T07:16:57.217Z,15.40
2017-09-22T07:19:24.700Z,15.40
2017-09-22T07:21:52.950Z,15.50
2017-09-22T07:24:20.430Z,15.40
2017-09-22T07:26:47.902Z,15.50
2017-09-22T07:29:16.150Z,15.70
2017-09-22T07:31:43.631Z,15.60
2017-09-22T07:34:11.873Z,15.70
2017-09-22T07:36:39.364Z,15.60
2017-09-22T07:39:07.624Z,15.60
2017-09-22T07:41:35.106Z,15.60
2017-09-22T07:44:03.363Z,15.80
2017-09-22T07:46:30.851Z,15.70
2017-09-22T07:48:59.094Z,15.90
2017-09-22T07:51:26.573Z,15.80
2017-09-22T07:53:54.834Z,15.80
2017-09-22T07:56:22.314Z,15.80
2017-09-22T07:58:50.562Z,15.90
2017-09-22T08:01:18.044Z,15.90
2017-09-22T08:03:46.307Z,16.10
2017-09-22T08:06:14.568Z,16.10
2017-09-22T08:08:42.049Z,16.00
2017-09-22T08:11:09.544Z,16.10
2017-09-22T08:13:37.029Z,16.10
2017-09-22T08:16:04.519Z,16.10
2017-09-22T08:18:31.997Z,16.10
2017-09-22T08:21:00.246Z,16.20
2017-09-22T08:23:27.736Z,16.10
2017-09-22T08:25:56.003Z,16.20
2017-09-22T08:28:24.259Z,16.20
2017-09-22T08:30:51.747Z,16.20
2017-09-22T08:33:19.989Z,16.40
2017-09-22T08:35:47.473Z,16.30
2017-09-22T08:38:15.739Z,16.30
2017-09-22T08:40:43.227Z,16.20
2017-09-22T08:43:11.479Z,16.40
2017-09-22T08:45:39.724Z,16.40
2017-09-22T08:48:07.217Z,16.30
2017-09-22T08:50:34.697Z,16.40
2017-09-22T08:53:02.955Z,16.50
2017-09-22T08:55:30.438Z,16.40
2017-09-22T08:57:58.695Z,16.60
2017-09-22T09:00:26.951Z,16.60
2017-09-22T09:02:54.440Z,16.60
2017-09-22T09:05:22.699Z,17.20
2017-09-22T09:07:50.178Z,17.10
2017-09-22T09:10:18.443Z,16.90
2017-09-22T09:12:46.698Z,17.00
2017-09-22T09:15:14.198Z,16.90
2017-09-22T09:17:41.687Z,16.90
2017-09-22T09:20:09.180Z,16.90
2017-09-22T09:22:36.666Z,17.00
2017-09-22T09:25:04.913Z,17.10
2017-09-22T09:27:32.399Z,17.00
2017-09-22T09:30:00.661Z,17.20
2017-09-22T09:32:28.181Z,17.20
2017-09-22T09:34:55.680Z,17.10
2017-09-22T09:37:23.939Z,17.10
2017-09-22T09:39:52.350Z,17.10
2017-09-22T09:42:20.616Z,17.30
2017-09-22T09:44:48.097Z,17.30
2017-09-22T09:47:16.360Z,17.30
2017-09-22T09:49:44.610Z,17.30
2017-09-22T09:52:12.101Z,17.20
2017-09-22T09:54:40.337Z,17.40
2017-09-22T09:57:07.827Z,17.40
2017-09-22T09:59:36.078Z,17.40
2017-09-22T10:02:03.551Z,17.40
2017-09-22T10:04:31.043Z,17.40
2017-09-22T10:06:59.293Z,17.50
2017-09-22T10:09:27.554Z,17.60
2017-09-22T10:11:55.034Z,17.50
2017-09-22T10:14:23.317Z,17.70
2017-09-22T10:16:51.567Z,17.80
2017-09-22T10:19:19.050Z,17.80
2017-09-22T10:21:47.310Z,17.90
2017-09-22T10:24:14.788Z,17.90
2017-09-22T10:26:43.038Z,17.90
2017-09-22T10:29:10.524Z,17.90
2017-09-22T10:31:38.769Z,17.90
2017-09-22T10:34:06.258Z,17.90
2017-09-22T10:36:34.501Z,18.10
2017-09-22T10:39:01.990Z,18.00
2017-09-22T10:41:30.242Z,18.10
2017-09-22T10:43:57.731Z,18.10
2017-09-22T10:46:25.990Z,18.00
2017-09-22T10:48:53.470Z,17.90
2017-09-22T10:51:21.727Z,18.00
2017-09-22T10:53:49.219Z,18.00
2017-09-22T10:56:17.465Z,18.00
2017-09-22T10:58:44.945Z,18.00
2017-09-22T11:01:13.204Z,18.20
2017-09-22T11:03:42.209Z,18.10
2017-09-22T11:06:10.471Z,18.10
2017-09-22T11:08:37.949Z,18.10
2017-09-22T11:11:06.194Z,18.10
2017-09-22T11:13:33.693Z,18.10
2017-09-22T11:16:01.960Z,18.30
2017-09-22T11:18:30.213Z,18.20
2017-09-22T11:20:57.710Z,18.20
2017-09-22T11:23:25.963Z,18.40
2017-09-22T11:25:54.220Z,18.30
2017-09-22T11:28:21.713Z,18.30
2017-09-22T11:30:49.467Z,18.30
2017-09-22T11:33:17.713Z,18.20
2017-09-22T11:35:45.207Z,18.20
2017-09-22T11:38:13.460Z,18.30
2017-09-22T11:40:40.971Z,18.20
2017-09-22T11:43:08.455Z,18.40
2017-09-22T11:45:35.942Z,18.50
2017-09-22T11:48:03.426Z,18.50
2017-09-22T11:50:31.675Z,18.70
2017-09-22T11:52:59.169Z,18.60
2017-09-22T11:55:27.413Z,18.70
2017-09-22T11:57:54.911Z,18.60
2017-09-22T12:00:23.158Z,18.70
2017-09-22T12:02:50.648Z,18.70
2017-09-22T12:05:18.139Z,18.90
2017-09-22T12:07:45.640Z,18.90
2017-09-22T12:10:13.894Z,18.90
2017-09-22T12:12:41.378Z,18.80
2017-09-22T12:15:09.638Z,18.90
2017-09-22T12:17:37.141Z,18.80
2017-09-22T12:20:04.647Z,18.80
2017-09-22T12:22:32.133Z,18.90
2017-09-22T12:25:00.399Z,18.90
2017-09-22T12:27:27.903Z,18.90
2017-09-22T12:29:55.415Z,18.90
2017-09-22T12:32:22.908Z,18.90
2017-09-22T12:34:51.168Z,19.00
2017-09-22T12:37:19.425Z,19.00
2017-09-22T12:39:46.909Z,19.00
2017-09-22T12:42:15.163Z,19.00
2017-09-22T12:44:42.645Z,18.90
2017-09-22T12:47:10.902Z,19.00
2017-09-22T12:49:38.378Z,19.00
2017-09-22T12:52:06.636Z,19.10
2017-09-22T12:54:34.121Z,19.00
2017-09-22T12:57:02.376Z,19.10
2017-09-22T12:59:29.901Z,19.00
2017-09-22T13:01:57.488Z,19.20
2017-09-22T13:04:24.988Z,19.10
2017-09-22T13:06:53.258Z,19.30
2017-09-22T13:09:21.501Z,19.20
2017-09-22T13:11:48.982Z,19.20
2017-09-22T13:14:17.247Z,19.30
2017-09-22T13:16:45.510Z,19.30
2017-09-22T13:19:13.037Z,19.20
2017-09-22T13:21:40.513Z,19.40
2017-09-22T13:24:07.999Z,19.40
2017-09-22T13:26:36.237Z,19.60
2017-09-22T13:29:03.714Z,19.60
2017-09-22T13:31:31.219Z,19.60
2017-09-22T13:33:59.512Z,19.60
2017-09-22T13:36:27.759Z,19.50
2017-09-22T13:38:56.017Z,19.60
2017-09-22T13:41:23.503Z,19.50
2017-09-22T13:43:51.762Z,19.50
2017-09-22T13:46:20.759Z,19.40
2017-09-22T13:48:48.248Z,19.50
2017-09-22T13:51:16.494Z,19.40
2017-09-22T13:53:43.978Z,19.30
2017-09-22T13:56:12.235Z,19.60
2017-09-22T13:58:40.475Z,19.60
2017-09-22T14:01:07.945Z,19.50
2017-09-22T14:03:35.430Z,19.50
2017-09-22T14:06:03.679Z,19.50
2017-09-22T14:08:31.165Z,19.40
2017-09-22T14:10:59.423Z,19.80
2017-09-22T14:13:26.919Z,19.70
2017-09-22T14:15:55.174Z,19.70
2017-09-22T14:18:22.663Z,19.70
2017-09-22T14:20:50.157Z,19.70
2017-09-22T14:23:17.643Z,19.80
2017-09-22T14:25:45.124Z,19.80
2017-09-22T14:28:13.376Z,19.80
2017-09-22T14:30:40.862Z,19.80
2017-09-22T14:33:09.110Z,19.90
2017-09-22T14:35:36.595Z,19.80
2017-09-22T14:38:04.851Z,20.10
2017-09-22T14:40:32.339Z,20.00
2017-09-22T14:43:00.592Z,20.10
2017-09-22T14:45:28.082Z,20.10
2017-09-22T14:47:56.341Z,20.00
2017-09-22T14:50:24.600Z,20.10
2017-09-22T14:52:53.590Z,20.10
2017-09-22T14:55:21.075Z,20.00
2017-09-22T14:57:49.314Z,20.00
2017-09-22T15:00:16.794Z,20.00
2017-09-22T15:02:45.786Z,20.00
2017-09-22T15:05:14.025Z,19.90
2017-09-22T15:07:41.521Z,19.90
2017-09-22T15:10:09.783Z,20.00
2017-09-22T15:12:37.261Z,20.00
2017-09-22T15:15:04.755Z,20.10
2017-09-22T15:17:32.250Z,20.10
2017-09-22T15:19:59.721Z,20.00
2017-09-22T15:22:27.201Z,20.00
2017-09-22T15:24:54.686Z,20.10
2017-09-22T15:27:22.171Z,20.10
2017-09-22T15:29:49.653Z,20.00
2017-09-22T15:32:17.145Z,20.00
2017-09-22T15:34:45.398Z,20.10
2017-09-22T15:37:12.869Z,20.10
2017-09-22T15:39:41.123Z,20.10
2017-09-22T15:42:08.607Z,20.10
2017-09-22T15:44:36.097Z,20.00
2017-09-22T15:47:03.592Z,19.90
2017-09-22T15:49:31.065Z,20.00
2017-09-22T15:51:58.548Z,20.10
2017-09-22T15:54:26.814Z,20.00
2017-09-22T15:56:55.075Z,19.90
2017-09-22T15:59:22.561Z,19.90
2017-09-22T16:01:50.822Z,20.10
2017-09-22T16:04:18.314Z,20.00
2017-09-22T16:06:46.565Z,20.00
2017-09-22T16:09:14.048Z,19.90
2017-09-22T16:11:42.300Z,20.10
2017-09-22T16:14:11.324Z,20.00
2017-09-22T16:16:38.836Z,20.00
2017-09-22T16:19:06.328Z,20.10
2017-09-22T16:21:34.573Z,20.10
2017-09-22T16:24:03.588Z,20.10
2017-09-22T16:26:31.846Z,20.10
2017-09-22T16:28:59.331Z,20.10
2017-09-22T16:31:27.585Z,20.10
2017-09-22T16:33:55.079Z,20.00
2017-09-22T16:36:23.330Z,20.00
2017-09-22T16:38:51.590Z,20.00
2017-09-22T16:41:19.083Z,19.90
2017-09-22T16:43:47.334Z,19.90
2017-09-22T16:46:14.827Z,19.90
2017-09-22T16:48:43.070Z,19.90
2017-09-22T16:51:10.550Z,19.90
2017-09-22T16:53:38.806Z,19.90
2017-09-22T16:56:06.292Z,19.90
2017-09-22T16:58:34.542Z,19.90
2017-09-22T17:01:02.026Z,19.80
2017-09-22T17:03:30.273Z,19.90
2017-09-22T17:05:57.764Z,19.90
2017-09-22T17:08:26.019Z,19.90
2017-09-22T17:10:53.506Z,19.90
2017-09-22T17:13:21.749Z,19.90
2017-09-22T17:15:49.243Z,19.90
2017-09-22T17:18:17.497Z,19.90
2017-09-22T17:20:45.754Z,19.90
2017-09-22T17:23:13.247Z,19.90
2017-09-22T17:25:41.502Z,19.80
2017-09-22T17:28:08.982Z,19.70
2017-09-22T17:30:37.248Z,19.60
2017-09-22T17:33:05.507Z,19.60
2017-09-22T17:35:32.999Z,19.60
2017-09-22T17:38:01.253Z,19.70
2017-09-22T17:40:30.248Z,19.60
2017-09-22T17:42:58.494Z,19.60
2017-09-22T17:45:25.974Z,19.60
2017-09-22T17:47:53.457Z,19.60
2017-09-22T17:50:21.701Z,19.60
2017-09-22T17:52:49.182Z,19.60
2017-09-22T17:55:16.665Z,19.60
2017-09-22T17:57:44.935Z,19.60
2017-09-22T18:00:13.195Z,19.60
2017-09-22T18:02:42.216Z,19.50
2017-09-22T18:05:10.476Z,19.60
2017-09-22T18:07:38.766Z,19.60
2017-09-22T18:10:07.035Z,19.50
2017-09-22T18:12:35.297Z,19.50
2017-09-22T18:15:03.549Z,19.60
2017-09-22T18:17:31.061Z,19.60
2017-09-22T18:19:59.317Z,19.60
2017-09-22T18:22:26.810Z,19.60
2017-09-22T18:24:54.299Z,19.60
2017-09-22T18:27:21.782Z,19.50
2017-09-22T18:29:49.269Z,19.50
2017-09-22T18:32:17.523Z,19.40
2017-09-22T18:34:46.536Z,19.30
2017-09-22T18:37:14.765Z,19.30
2017-09-22T18:39:43.813Z,19.30
2017-09-22T18:42:12.157Z,19.30
2017-09-22T18:44:39.638Z,19.30
2017-09-22T18:47:07.125Z,19.30
2017-09-22T18:49:34.605Z,19.20
2017-09-22T18:52:02.092Z,19.20
2017-09-22T18:54:29.601Z,19.20
2017-09-22T18:56:57.094Z,19.20
2017-09-22T18:59:24.618Z,19.20
2017-09-22T19:01:52.095Z,19.10
2017-09-22T19:04:19.588Z,19.10
2017-09-22T19:06:47.075Z,19.10
2017-09-22T19:09:15.332Z,19.00
2017-09-22T19:11:42.834Z,19.00
2017-09-22T19:14:10.312Z,19.00
2017-09-22T19:16:37.792Z,18.90
2017-09-22T19:19:05.277Z,18.90
2017-09-22T19:21:34.256Z,18.80
2017-09-22T19:24:01.757Z,18.80
2017-09-22T19:26:29.252Z,18.80
2017-09-22T19:28:56.743Z,18.80
2017-09-22T19:31:24.249Z,18.80
2017-09-22T19:33:51.754Z,18.80
2017-09-22T19:36:19.247Z,18.80
2017-09-22T19:38:47.503Z,18.70
2017-09-22T19:41:16.490Z,18.60
2017-09-22T19:43:44.006Z,18.60
2017-09-22T19:46:11.498Z,18.60
2017-09-22T19:48:39.028Z,18.50
2017-09-22T19:51:06.514Z,18.60
2017-09-22T19:53:34.004Z,18.60
2017-09-22T19:56:02.266Z,18.60
2017-09-22T19:58:31.257Z,18.50
2017-09-22T20:00:58.749Z,18.50
2017-09-22T20:03:26.258Z,18.50
2017-09-22T20:05:53.734Z,18.50
2017-09-22T20:08:22.140Z,18.50
2017-09-22T20:10:50.387Z,18.40
2017-09-22T20:13:17.886Z,18.40
2017-09-22T20:15:45.377Z,18.30
2017-09-22T20:18:12.872Z,18.40
2017-09-22T20:20:40.360Z,18.30
2017-09-22T20:23:08.605Z,18.30
2017-09-22T20:25:36.090Z,18.30
2017-09-22T20:28:04.344Z,18.20
2017-09-22T20:30:31.838Z,18.20
2017-09-22T20:32:59.316Z,18.20
2017-09-22T20:35:26.826Z,18.10
2017-09-22T20:37:55.106Z,18.10
2017-09-22T20:40:22.714Z,18.00
2017-09-22T20:42:50.210Z,18.10
2017-09-22T20:45:17.726Z,18.10
2017-09-22T20:47:45.207Z,18.10
2017-09-22T20:50:12.694Z,18.00
2017-09-22T20:52:40.183Z,18.00
2017-09-22T20:55:08.447Z,18.00
2017-09-22T20:57:36.699Z,17.90
2017-09-22T21:00:04.203Z,17.90
2017-09-22T21:02:31.677Z,17.90
2017-09-22T21:04:59.160Z,17.90
2017-09-22T21:07:26.664Z,17.90
2017-09-22T21:09:54.923Z,18.00
2017-09-22T21:12:22.402Z,17.90
2017-09-22T21:14:50.650Z,17.90
2017-09-22T21:17:18.188Z,17.90
2017-09-22T21:19:45.665Z,18.00
2017-09-22T21:22:13.154Z,17.90
2017-09-22T21:24:41.427Z,17.80
2017-09-22T21:27:09.690Z,17.80
2017-09-22T21:29:37.179Z,17.70
2017-09-22T21:32:04.847Z,17.70
2017-09-22T21:34:32.335Z,17.70
2017-09-22T21:36:59.822Z,17.70
2017-09-22T21:39:27.312Z,17.60
2017-09-22T21:41:55.557Z,17.60
2017-09-22T21:44:23.045Z,17.60
2017-09-22T21:46:51.285Z,17.60
2017-09-22T21:49:18.771Z,17.50
2017-09-22T21:51:47.030Z,17.60
2017-09-22T21:54:14.517Z,17.50
2017-09-22T21:56:42.827Z,17.60
2017-09-22T21:59:10.310Z,17.50
2017-09-22T22:01:37.800Z,17.60
2017-09-22T22:04:11.654Z,17.50
2017-09-22T22:06:44.855Z,17.50
2017-09-22T22:09:12.338Z,17.50
2017-09-22T22:11:39.824Z,17.50
2017-09-22T22:14:11.215Z,17.50
2017-09-22T22:16:38.708Z,17.40
2017-09-22T22:19:06.190Z,17.40
2017-09-22T22:21:34.440Z,17.30
2017-09-22T22:24:01.971Z,17.30
2017-09-22T22:26:29.455Z,17.30
2017-09-22T22:28:56.948Z,17.30
2017-09-22T22:31:25.195Z,17.30
2017-09-22T22:33:52.674Z,17.30
2017-09-22T22:36:26.066Z,17.30
2017-09-22T22:38:53.548Z,17.20
2017-09-22T22:41:21.798Z,17.20
2017-09-22T22:43:49.279Z,17.20
2017-09-22T22:46:18.473Z,17.20
2017-09-22T22:48:46.724Z,17.20
2017-09-22T22:51:14.213Z,17.20
2017-09-22T22:53:42.457Z,17.20
2017-09-22T22:56:09.939Z,17.10
2017-09-22T22:58:38.187Z,17.20
2017-09-22T23:01:06.814Z,17.20
2017-09-22T23:03:35.063Z,17.20
2017-09-22T23:06:02.561Z,17.20
2017-09-22T23:08:30.801Z,17.10
2017-09-22T23:10:58.299Z,17.10
2017-09-22T23:13:25.778Z,17.10
2017-09-22T23:15:53.272Z,17.10
2017-09-22T23:18:20.759Z,17.10
2017-09-22T23:20:49.089Z,17.00
2017-09-22T23:23:16.586Z,16.90
2017-09-22T23:25:44.061Z,17.00
2017-09-22T23:28:12.376Z,17.00
2017-09-22T23:30:39.862Z,17.00
2017-09-22T23:33:07.406Z,17.00
2017-09-22T23:35:34.891Z,17.00
2017-09-22T23:38:02.374Z,17.00
2017-09-22T23:40:30.615Z,17.00
2017-09-22T23:42:58.090Z,16.90
2017-09-22T23:45:25.576Z,17.00
2017-09-22T23:47:53.824Z,17.00
2017-09-22T23:50:21.319Z,16.90
2017-09-22T23:52:48.795Z,17.00
2017-09-22T23:55:16.279Z,17.00
2017-09-22T23:57:43.759Z,17.00
